Latest Coastal Weather Observations for Mandora

IDW60701

Issued at 8:42 am WST Friday 27 February 2015 (issued every 10 minutes, with the page automatically refreshed every 10 minutes)

About coastal observations | Map of coastal stations | Coastal observations for WA | Marine services | Other Formats
Station Details ID: 004019 Name: MANDORA Lat: -19.74 Lon: 120.84 Height: 7.5 m
Data from the previous 72 hours. | See also: Recent months at Mandora
Date/Time
WST
Temp

°C
Wind Pressure Rain
since 9am
mm
Weather Cloud Vis
km
Sea
Height
m
Swell
Dir
 
Speed
knots
Gust
knots
hPa Trend Height
m
Period
s
Dir
27/08:30am 28.7 S 6 9 1007.8 - 21.2 - - - - - - -
27/08:00am 27.6 S 5 7 1007.9 - 21.2 - - - - - - -
27/07:30am 26.1 SE 5 6 1007.9 - 21.2 - - - - - - -
27/07:00am 25.5 SSE 5 8 1007.3 - 21.2 - - - - - - -
27/06:30am 24.9 SE 4 5 1007.0 - 21.2 - - - - - - -
27/06:00am 24.7 ESE 4 6 1006.3 - 21.2 - - - - - - -
27/05:30am 24.5 ESE 5 7 1006.1 - 21.2 - - - - - - -
27/05:00am 24.7 S 6 8 1005.3 - 21.2 - - - - - - -
27/04:30am 24.7 S 7 10 1004.8 - 21.2 - - - - - - -
27/04:00am 24.9 ESE 4 6 1005.1 - 21.2 - - - - - - -
27/03:30am 25.1 W 8 11 1003.9 - 21.2 - - - - - - -
27/03:00am 24.7 WNW 10 15 1003.5 - 21.2 - - - - - - -
27/02:30am 24.6 NNW 9 13 1005.0 - 21.0 - - - - - - -
27/02:00am 25.2 N 11 15 1006.3 - 19.6 - - - - - - -
27/01:30am 24.6 NNE 9 13 1007.5 - 18.0 - - - - - - -
27/01:00am 24.3 NNE 11 15 1007.9 - 16.0 - - - - - - -
27/12:30am 24.0 NE 13 17 1008.7 - 15.4 - - - - - - -
27/12:00am 23.1 NE 10 17 1009.4 - 14.0 - - - - - - -
 
Date/Time
WST
Temp

°C
Wind Pressure Rain
since 9am
mm
Weather Cloud Vis
km
Sea
Height
m
Swell
Dir
 
Speed
knots
Gust
knots
hPa Trend Height
m
Period
s
Dir
26/11:30pm 22.7 ENE 19 29 1010.1 - 4.8 - - - - - - -
26/11:16pm 23.4 NE 21 38 1010.0 - 0.0 - - - - - - -
26/11:06pm 26.6 NE 15 26 1009.5 - 0.0 - - - - - - -
26/11:00pm 28.7 N 5 6 1007.8 - 0.0 - - - - - - -
26/10:30pm 28.8 NW 4 5 1007.6 - 0.0 - - - - - - -
26/10:00pm 29.0 WNW 4 6 1007.2 - 0.0 - - - - - - -
26/09:30pm 28.9 NW 5 7 1007.1 - 0.0 - - - - - - -
26/09:00pm 29.1 NW 6 7 1006.3 - 0.0 - - - - - - -
26/08:30pm 29.3 NW 6 7 1006.1 - 0.0 - - - - - - -
26/08:00pm 29.5 NW 5 8 1005.5 - 0.0 - - - - - - -
26/07:30pm 29.7 NW 6 8 1005.3 - 0.0 - - - - - - -
26/07:00pm 30.1 NW 6 8 1004.3 - 0.0 - - - - - - -
26/06:30pm 30.5 NW 7 9 1004.0 - 0.0 - - - - - - -
26/06:00pm 31.1 NNW 8 10 1003.6 - 0.0 - - - - - - -
26/05:30pm 31.4 NNW 8 12 1003.3 - 0.0 - - - - - - -
26/05:00pm 32.4 NNW 9 14 1003.1 - 0.0 - - - - - - -
26/04:30pm 32.8 NNW 10 14 1003.2 - 0.0 - - - - - - -
26/04:00pm 32.9 NNW 10 14 1003.1 - 0.0 - - - - - - -
26/03:30pm 32.6 NNW 10 13 1003.5 - 0.0 - - - - - - -
26/03:00pm 33.5 NNW 9 14 1003.7 - 0.0 - - - - - - -
26/02:30pm 33.3 NNW 10 13 1004.2 - 0.0 - - - - - - -
26/02:00pm 34.2 N 11 17 1004.5 - 0.0 - - - - - - -
26/01:30pm 34.4 N 11 16 1004.9 - 0.0 - - - - - - -
26/01:00pm 34.0 N 10 13 1005.4 - 0.0 - - - - - - -
26/12:30pm 34.7 N 9 11 1005.7 - 0.0 - - - - - - -
26/12:00pm 35.2 N 8 11 1006.3 - 0.0 - - - - - - -
26/11:30am 34.7 NE 5 12 1006.9 - 0.0 - - - - - - -
26/11:00am 35.5 NE 5 9 1007.4 - 0.0 - - - - - - -
26/10:30am 34.3 ENE 6 9 1007.7 - 0.0 - - - - - - -
26/10:00am 33.5 ESE 4 8 1007.7 - 0.0 - - - - - - -
26/09:30am 33.6 ESE 4 6 1008.2 - 0.0 - - - - - - -
26/09:00am 32.2 SE 6 9 1008.4 - 0.2 - - - - - - -
26/08:30am 31.7 ESE 6 9 1008.1 - 0.2 - - - - - - -
26/08:00am 31.1 ESE 5 7 1007.9 - 0.2 - - - - - - -
26/07:30am 30.0 SE 4 6 1007.7 - 0.2 - - - - - - -
26/07:00am 28.5 CALM 0 0 1007.6 - 0.2 - - - - - - -
26/06:30am 27.3 S 2 3 1007.4 - 0.2 - - - - - - -
26/06:00am 26.9 SSE 2 3 1006.9 - 0.2 - - - - - - -
26/05:30am 27.0 S 3 4 1006.7 - 0.2 - - - - - - -
26/05:00am 27.2 S 4 5 1006.5 - 0.2 - - - - - - -
26/04:30am 27.2 S 4 4 1006.4 - 0.2 - - - - - - -
26/04:00am 27.2 SSW 4 6 1006.1 - 0.2 - - - - - - -
26/03:30am 27.0 WSW 5 6 1005.6 - 0.2 - - - - - - -
26/03:00am 26.9 SW 4 5 1005.5 - 0.2 - - - - - - -
26/02:30am 26.9 WSW 4 5 1005.6 - 0.2 - - - - - - -
26/02:00am 27.0 SW 4 4 1006.1 - 0.2 - - - - - - -
26/01:30am 27.2 SSW 4 5 1006.4 - 0.2 - - - - - - -
26/01:00am 27.2 SSW 5 6 1006.6 - 0.2 - - - - - - -
26/12:30am 27.3 SSW 4 5 1006.9 - 0.2 - - - - - - -
26/12:00am 27.4 SW 5 6 1006.8 - 0.2 - - - - - - -
 
Date/Time
WST
Temp

°C
Wind Pressure Rain
since 9am
mm
Weather Cloud Vis
km
Sea
Height
m
Swell
Dir
 
Speed
knots
Gust
knots
hPa Trend Height
m
Period
s
Dir
25/11:30pm 27.5 WSW 4 5 1007.0 - 0.2 - - - - - - -
25/11:00pm 27.6 WSW 4 5 1007.3 - 0.2 - - - - - - -
25/10:30pm 27.8 W 5 6 1007.7 - 0.2 - - - - - - -
25/10:00pm 28.0 WSW 4 5 1007.9 - 0.2 - - - - - - -
25/09:30pm 28.3 W 4 5 1008.0 - 0.2 - - - - - - -
25/09:00pm 28.4 W 4 5 1007.5 - 0.2 - - - - - - -
25/08:30pm 28.7 W 4 5 1007.3 - 0.2 - - - - - - -
25/08:00pm 29.1 W 4 6 1007.0 - 0.2 - - - - - - -
25/07:30pm 29.2 W 5 7 1006.5 - 0.2 - - - - - - -
25/07:00pm 29.3 WNW 5 7 1006.1 - 0.2 - - - - - - -
25/06:30pm 29.9 WNW 6 9 1005.4 - 0.2 - - - - - - -
25/06:00pm 30.6 WNW 8 12 1005.1 - 0.2 - - - - - - -
25/05:30pm 31.1 NW 9 14 1005.1 - 0.2 - - - - - - -
25/05:00pm 31.7 NW 9 13 1005.0 - 0.2 - - - - - - -
25/04:30pm 32.3 NW 10 14 1004.8 - 0.2 - - - - - - -
25/04:00pm 32.4 NW 9 13 1004.8 - 0.2 - - - - - - -
25/03:30pm 32.8 NW 8 12 1004.9 - 0.2 - - - - - - -
25/03:00pm 32.7 NW 8 12 1004.9 - 0.2 - - - - - - -
25/02:30pm 32.2 NW 11 16 1005.4 - 0.2 - - - - - - -
25/02:00pm 32.5 NNW 10 15 1005.6 - 0.2 - - - - - - -
25/01:30pm 32.7 NNW 8 13 1005.6 - 0.2 - - - - - - -
25/01:00pm 32.6 N 8 11 1006.3 - 0.2 - - - - - - -
25/12:30pm 32.2 NW 6 8 1006.8 - 0.2 - - - - - - -
25/12:00pm 28.4 NW 7 9 1007.2 - 0.2 - - - - - - -
25/11:30am 26.6 NW 9 14 1007.9 - 0.2 - - - - - - -
25/11:00am 27.2 N 12 15 1008.1 - 0.2 - - - - - - -
25/10:30am 31.8 NNE 5 6 1008.0 - 0.2 - - - - - - -
25/10:00am 32.7 NE 4 6 1008.1 - 0.2 - - - - - - -
25/09:30am 32.7 NNE 3 5 1008.3 - 0.0 - - - - - - -
25/09:00am 32.5 SSW 5 9 1008.0 - 1.8 - - - - - - -
25/08:30am 31.3 S 5 9 1008.4 - 1.8 - - - - - - -
25/08:00am 30.2 S 6 8 1008.4 - 1.8 - - - - - - -
25/07:30am 29.1 S 5 7 1008.3 - 1.8 - - - - - - -
25/07:00am 28.6 SSW 6 9 1008.1 - 1.8 - - - - - - -
25/06:30am 27.5 S 5 8 1007.7 - 1.8 - - - - - - -
25/06:00am 27.3 S 5 7 1007.3 - 1.8 - - - - - - -
25/05:30am 27.2 S 4 6 1007.3 - 1.8 - - - - - - -
25/05:00am 27.0 SW 4 5 1007.1 - 1.8 - - - - - - -
25/04:30am 26.8 W 5 6 1007.1 - 1.8 - - - - - - -
25/04:00am 26.9 WNW 3 4 1007.0 - 1.6 - - - - - - -
25/03:30am 27.3 SSW 3 4 1006.8 - 0.8 - - - - - - -
25/03:00am 27.2 SSW 3 4 1006.7 - 0.8 - - - - - - -
25/02:30am 27.7 WSW 4 4 1006.8 - 0.8 - - - - - - -
25/02:00am 27.7 WSW 3 4 1006.8 - 0.8 - - - - - - -
25/01:30am 27.6 SW 4 5 1007.0 - 0.8 - - - - - - -
25/01:00am 27.7 CALM 0 0 1007.3 - 0.8 - - - - - - -
25/12:30am 27.9 CALM 0 0 1007.5 - 0.8 - - - - - - -
25/12:00am 27.7 CALM 0 2 1007.2 - 0.8 - - - - - - -
 
Date/Time
WST
Temp

°C
Wind Pressure Rain
since 9am
mm
Weather Cloud Vis
km
Sea
Height
m
Swell
Dir
 
Speed
knots
Gust
knots
hPa Trend Height
m
Period
s
Dir
24/11:30pm 27.8 W 4 5 1007.5 - 0.8 - - - - - - -
24/11:00pm 27.8 CALM 0 0 1007.9 - 0.8 - - - - - - -
24/10:30pm 27.8 CALM 0 0 1008.0 - 0.8 - - - - - - -
24/10:00pm 28.0 N 4 4 1007.8 - 0.8 - - - - - - -
24/09:30pm 28.1 NW 3 3 1007.8 - 0.8 - - - - - - -
24/09:00pm 28.1 NW 4 6 1007.7 - 0.8 - - - - - - -
24/08:30pm 27.9 WNW 4 5 1007.5 - 0.8 - - - - - - -
24/08:00pm 28.1 WNW 3 4 1007.3 - 0.8 - - - - - - -
24/07:30pm 28.2 N 3 4 1006.7 - 0.8 - - - - - - -
24/07:00pm 28.6 N 3 4 1006.3 - 0.8 - - - - - - -
24/06:30pm 29.5 WNW 3 4 1005.9 - 0.8 - - - - - - -
24/06:00pm 30.2 NNW 5 7 1005.5 - 0.8 - - - - - - -
24/05:30pm 31.3 WNW 3 4 1005.2 - 0.8 - - - - - - -
24/05:00pm 31.9 W 4 6 1005.1 - 0.8 - - - - - - -
24/04:30pm 31.9 WNW 5 7 1005.4 - 0.8 - - - - - - -
24/04:00pm 32.0 W 7 9 1005.4 - 0.8 - - - - - - -
24/03:30pm 32.5 W 7 9 1005.5 - 0.8 - - - - - - -
24/03:00pm 31.1 W 8 11 1005.6 - 0.8 - - - - - - -
24/02:30pm 30.4 W 12 18 1006.0 - 0.8 - - - - - - -
24/02:00pm 31.5 W 12 16 1006.4 - 0.6 - - - - - - -
24/01:30pm 31.8 N 10 15 1006.2 - 0.6 - - - - - - -
24/01:00pm 30.6 N 7 11 1006.5 - 0.6 - - - - - - -
24/12:30pm 28.9 NNW 8 10 1006.8 - 0.6 - - - - - - -
24/12:00pm 31.3 NNW 6 9 1007.2 - 0.0 - - - - - - -
24/11:30am 32.5 N 5 9 1007.7 - 0.0 - - - - - - -
24/11:00am 32.3 ENE 5 7 1007.9 - 0.0 - - - - - - -
24/10:30am 32.4 SE 4 7 1008.2 - 0.0 - - - - - - -
24/10:00am 32.0 SSE 4 7 1008.6 - 0.0 - - - - - - -
24/09:30am 30.9 SSW 3 6 1009.2 - 0.0 - - - - - - -
24/09:00am 30.5 ESE 4 7 1009.4 - 60.6 - - - - - - -

Other Formats:

Comma delimited format used in spreadsheet applications
http://www.bom.gov.au/fwo/IDW60701/IDW60701.94200.axf

JavaScript Object Notation format (JSON) in row-major order
http://www.bom.gov.au/fwo/IDW60701/IDW60701.94200.json